sensor_id;sensor_type;location;lat;lon;timestamp;temperature;humidity
22852;DHT22;11592;45.460;9.240;2023-02-22T00:01:32;13.90;99.90
22852;DHT22;11592;45.460;9.240;2023-02-22T00:04:13;13.90;99.90
22852;DHT22;11592;45.460;9.240;2023-02-22T00:06:41;13.90;99.90
22852;DHT22;11592;45.460;9.240;2023-02-22T00:09:08;13.80;99.90
22852;DHT22;11592;45.460;9.240;2023-02-22T00:11:35;13.80;99.90
22852;DHT22;11592;45.460;9.240;2023-02-22T00:14:04;13.70;99.90
22852;DHT22;11592;45.460;9.240;2023-02-22T00:16:31;13.70;99.90
22852;DHT22;11592;45.460;9.240;2023-02-22T00:18:57;13.70;99.90
22852;DHT22;11592;45.460;9.240;2023-02-22T00:21:24;13.70;99.90
22852;DHT22;11592;45.460;9.240;2023-02-22T00:23:51;13.80;99.90
22852;DHT22;11592;45.460;9.240;2023-02-22T00:26:21;13.70;99.90
22852;DHT22;11592;45.460;9.240;2023-02-22T00:28:51;13.80;99.90
22852;DHT22;11592;45.460;9.240;2023-02-22T00:31:19;13.80;99.90
22852;DHT22;11592;45.460;9.240;2023-02-22T00:33:46;13.80;99.90
22852;DHT22;11592;45.460;9.240;2023-02-22T00:36:13;13.80;99.90
22852;DHT22;11592;45.460;9.240;2023-02-22T00:38:40;13.80;99.90
22852;DHT22;11592;45.460;9.240;2023-02-22T00:41:07;13.90;99.90
22852;DHT22;11592;45.460;9.240;2023-02-22T00:43:34;13.90;99.90
22852;DHT22;11592;45.460;9.240;2023-02-22T00:46:01;13.80;99.90
22852;DHT22;11592;45.460;9.240;2023-02-22T00:48:28;13.70;99.90
22852;DHT22;11592;45.460;9.240;2023-02-22T00:50:55;13.70;99.90
22852;DHT22;11592;45.460;9.240;2023-02-22T00:53:23;13.70;99.90
22852;DHT22;11592;45.460;9.240;2023-02-22T00:55:51;13.60;99.90
22852;DHT22;11592;45.460;9.240;2023-02-22T00:58:18;13.60;99.90
22852;DHT22;11592;45.460;9.240;2023-02-22T01:00:45;13.70;99.90
22852;DHT22;11592;45.460;9.240;2023-02-22T01:03:15;13.70;99.90
22852;DHT22;11592;45.460;9.240;2023-02-22T01:05:42;13.70;99.90
22852;DHT22;11592;45.460;9.240;2023-02-22T01:08:11;13.60;99.90
22852;DHT22;11592;45.460;9.240;2023-02-22T01:10:39;13.70;99.90
22852;DHT22;11592;45.460;9.240;2023-02-22T01:13:07;13.70;99.90
22852;DHT22;11592;45.460;9.240;2023-02-22T01:15:37;13.50;99.90
22852;DHT22;11592;45.460;9.240;2023-02-22T01:18:04;13.40;99.90
22852;DHT22;11592;45.460;9.240;2023-02-22T01:20:32;13.20;99.90
22852;DHT22;11592;45.460;9.240;2023-02-22T01:23:00;13.00;99.90
22852;DHT22;11592;45.460;9.240;2023-02-22T01:25:30;12.90;99.90
22852;DHT22;11592;45.460;9.240;2023-02-22T01:27:58;12.80;99.90
22852;DHT22;11592;45.460;9.240;2023-02-22T01:30:28;12.70;99.90
22852;DHT22;11592;45.460;9.240;2023-02-22T01:32:56;12.60;99.90
22852;DHT22;11592;45.460;9.240;2023-02-22T01:35:27;12.50;99.90
22852;DHT22;11592;45.460;9.240;2023-02-22T01:37:55;12.40;99.90
22852;DHT22;11592;45.460;9.240;2023-02-22T01:40:32;12.40;99.90
22852;DHT22;11592;45.460;9.240;2023-02-22T01:43:02;12.40;99.90
22852;DHT22;11592;45.460;9.240;2023-02-22T01:48:00;12.50;99.90
22852;DHT22;11592;45.460;9.240;2023-02-22T01:50:30;12.40;99.90
22852;DHT22;11592;45.460;9.240;2023-02-22T01:52:58;12.30;99.90
22852;DHT22;11592;45.460;9.240;2023-02-22T01:55:26;12.20;99.90
22852;DHT22;11592;45.460;9.240;2023-02-22T01:57:53;12.30;99.90
22852;DHT22;11592;45.460;9.240;2023-02-22T02:00:20;12.40;99.90
22852;DHT22;11592;45.460;9.240;2023-02-22T02:03:06;12.20;99.90
22852;DHT22;11592;45.460;9.240;2023-02-22T02:05:34;12.20;99.90
22852;DHT22;11592;45.460;9.240;2023-02-22T02:08:56;12.20;99.90
22852;DHT22;11592;45.460;9.240;2023-02-22T02:10:57;12.30;99.90
22852;DHT22;11592;45.460;9.240;2023-02-22T02:13:25;12.00;99.90
22852;DHT22;11592;45.460;9.240;2023-02-22T02:15:54;12.00;99.90
22852;DHT22;11592;45.460;9.240;2023-02-22T02:18:22;11.90;99.90
22852;DHT22;11592;45.460;9.240;2023-02-22T02:26:50;12.10;99.90
22852;DHT22;11592;45.460;9.240;2023-02-22T02:43:14;11.90;99.90
22852;DHT22;11592;45.460;9.240;2023-02-22T02:45:47;11.80;99.90
22852;DHT22;11592;45.460;9.240;2023-02-22T02:48:16;11.70;99.90
22852;DHT22;11592;45.460;9.240;2023-02-22T02:50:47;11.60;99.90
22852;DHT22;11592;45.460;9.240;2023-02-22T02:53:18;11.60;99.90
22852;DHT22;11592;45.460;9.240;2023-02-22T02:55:46;11.70;99.90
22852;DHT22;11592;45.460;9.240;2023-02-22T02:58:19;11.80;99.90
22852;DHT22;11592;45.460;9.240;2023-02-22T03:00:46;11.80;99.90
22852;DHT22;11592;45.460;9.240;2023-02-22T03:06:31;11.70;99.90
22852;DHT22;11592;45.460;9.240;2023-02-22T03:12:27;11.70;99.90
22852;DHT22;11592;45.460;9.240;2023-02-22T03:17:46;11.60;99.90
22852;DHT22;11592;45.460;9.240;2023-02-22T03:23:47;11.70;99.90
22852;DHT22;11592;45.460;9.240;2023-02-22T03:26:08;11.60;99.90
22852;DHT22;11592;45.460;9.240;2023-02-22T03:28:39;11.60;99.90
22852;DHT22;11592;45.460;9.240;2023-02-22T03:31:11;11.60;99.90
22852;DHT22;11592;45.460;9.240;2023-02-22T03:33:57;11.60;99.90
22852;DHT22;11592;45.460;9.240;2023-02-22T03:36:31;11.50;99.90
22852;DHT22;11592;45.460;9.240;2023-02-22T03:39:00;11.60;99.90
22852;DHT22;11592;45.460;9.240;2023-02-22T03:41:30;11.60;99.90
22852;DHT22;11592;45.460;9.240;2023-02-22T03:44:05;11.70;99.90
22852;DHT22;11592;45.460;9.240;2023-02-22T03:46:35;11.70;99.90
22852;DHT22;11592;45.460;9.240;2023-02-22T03:51:36;11.70;99.90
22852;DHT22;11592;45.460;9.240;2023-02-22T03:54:03;11.60;99.90
22852;DHT22;11592;45.460;9.240;2023-02-22T03:56:37;11.70;99.90
22852;DHT22;11592;45.460;9.240;2023-02-22T03:59:07;11.50;99.90
22852;DHT22;11592;45.460;9.240;2023-02-22T04:01:35;11.40;99.90
22852;DHT22;11592;45.460;9.240;2023-02-22T04:04:02;11.50;99.90
22852;DHT22;11592;45.460;9.240;2023-02-22T04:06:29;11.40;99.90
22852;DHT22;11592;45.460;9.240;2023-02-22T04:08:55;11.40;99.90
22852;DHT22;11592;45.460;9.240;2023-02-22T04:11:22;11.50;99.90
22852;DHT22;11592;45.460;9.240;2023-02-22T04:13:49;11.50;99.90
22852;DHT22;11592;45.460;9.240;2023-02-22T04:16:16;11.60;99.90
22852;DHT22;11592;45.460;9.240;2023-02-22T04:18:43;11.60;99.90
22852;DHT22;11592;45.460;9.240;2023-02-22T04:21:10;11.40;99.90
22852;DHT22;11592;45.460;9.240;2023-02-22T04:23:36;11.50;99.90
22852;DHT22;11592;45.460;9.240;2023-02-22T04:26:03;11.50;99.90
22852;DHT22;11592;45.460;9.240;2023-02-22T04:28:30;11.30;99.90
22852;DHT22;11592;45.460;9.240;2023-02-22T04:30:57;11.20;99.90
22852;DHT22;11592;45.460;9.240;2023-02-22T04:33:24;11.20;99.90
22852;DHT22;11592;45.460;9.240;2023-02-22T04:35:51;11.20;99.90
22852;DHT22;11592;45.460;9.240;2023-02-22T04:38:18;11.20;99.90
22852;DHT22;11592;45.460;9.240;2023-02-22T04:40:45;11.20;99.90
22852;DHT22;11592;45.460;9.240;2023-02-22T04:43:11;11.20;99.90
22852;DHT22;11592;45.460;9.240;2023-02-22T04:45:38;11.30;99.90
22852;DHT22;11592;45.460;9.240;2023-02-22T04:48:05;11.30;99.90
22852;DHT22;11592;45.460;9.240;2023-02-22T04:50:31;11.30;99.90
22852;DHT22;11592;45.460;9.240;2023-02-22T04:52:58;11.30;99.90
22852;DHT22;11592;45.460;9.240;2023-02-22T04:55:25;11.20;99.90
22852;DHT22;11592;45.460;9.240;2023-02-22T04:57:54;11.10;99.90
22852;DHT22;11592;45.460;9.240;2023-02-22T05:00:21;11.10;99.90
22852;DHT22;11592;45.460;9.240;2023-02-22T05:02:49;11.10;99.90
22852;DHT22;11592;45.460;9.240;2023-02-22T05:05:19;11.10;99.90
22852;DHT22;11592;45.460;9.240;2023-02-22T05:07:47;11.30;99.90
22852;DHT22;11592;45.460;9.240;2023-02-22T05:10:15;11.20;99.90
22852;DHT22;11592;45.460;9.240;2023-02-22T05:12:41;11.30;99.90
22852;DHT22;11592;45.460;9.240;2023-02-22T05:15:08;11.20;99.90
22852;DHT22;11592;45.460;9.240;2023-02-22T05:17:36;11.20;99.90
22852;DHT22;11592;45.460;9.240;2023-02-22T05:20:03;11.20;99.90
22852;DHT22;11592;45.460;9.240;2023-02-22T05:22:30;11.20;99.90
22852;DHT22;11592;45.460;9.240;2023-02-22T05:24:56;11.10;99.90
22852;DHT22;11592;45.460;9.240;2023-02-22T05:27:24;11.10;99.90
22852;DHT22;11592;45.460;9.240;2023-02-22T05:29:50;11.10;99.90
22852;DHT22;11592;45.460;9.240;2023-02-22T05:32:17;11.20;99.90
22852;DHT22;11592;45.460;9.240;2023-02-22T05:34:44;11.10;99.90
22852;DHT22;11592;45.460;9.240;2023-02-22T05:37:11;11.10;99.90
22852;DHT22;11592;45.460;9.240;2023-02-22T05:39:38;11.10;99.90
22852;DHT22;11592;45.460;9.240;2023-02-22T05:42:05;11.10;99.90
22852;DHT22;11592;45.460;9.240;2023-02-22T05:44:31;11.10;99.90
22852;DHT22;11592;45.460;9.240;2023-02-22T05:46:58;11.10;99.90
22852;DHT22;11592;45.460;9.240;2023-02-22T05:49:25;11.00;99.90
22852;DHT22;11592;45.460;9.240;2023-02-22T05:51:51;11.10;99.90
22852;DHT22;11592;45.460;9.240;2023-02-22T05:54:18;11.10;99.90
22852;DHT22;11592;45.460;9.240;2023-02-22T05:56:45;11.10;99.90
22852;DHT22;11592;45.460;9.240;2023-02-22T05:59:14;11.20;99.90
22852;DHT22;11592;45.460;9.240;2023-02-22T06:01:40;11.20;99.90
22852;DHT22;11592;45.460;9.240;2023-02-22T06:04:07;11.20;99.90
22852;DHT22;11592;45.460;9.240;2023-02-22T06:06:34;11.20;99.90
22852;DHT22;11592;45.460;9.240;2023-02-22T06:09:01;11.10;99.90
22852;DHT22;11592;45.460;9.240;2023-02-22T06:11:28;11.20;99.90
22852;DHT22;11592;45.460;9.240;2023-02-22T06:13:55;11.10;99.90
22852;DHT22;11592;45.460;9.240;2023-02-22T06:16:21;11.10;99.90
22852;DHT22;11592;45.460;9.240;2023-02-22T06:18:49;11.20;99.90
22852;DHT22;11592;45.460;9.240;2023-02-22T06:21:16;11.20;99.90
22852;DHT22;11592;45.460;9.240;2023-02-22T06:23:43;11.20;99.90
22852;DHT22;11592;45.460;9.240;2023-02-22T06:26:10;11.20;99.90
22852;DHT22;11592;45.460;9.240;2023-02-22T06:28:37;11.10;99.90
22852;DHT22;11592;45.460;9.240;2023-02-22T06:31:04;11.10;99.90
22852;DHT22;11592;45.460;9.240;2023-02-22T06:33:30;11.10;99.90
22852;DHT22;11592;45.460;9.240;2023-02-22T06:35:57;11.30;99.90
22852;DHT22;11592;45.460;9.240;2023-02-22T06:38:25;11.20;99.90
22852;DHT22;11592;45.460;9.240;2023-02-22T06:40:53;11.10;99.90
22852;DHT22;11592;45.460;9.240;2023-02-22T06:43:22;11.00;99.90
22852;DHT22;11592;45.460;9.240;2023-02-22T06:45:50;11.10;99.90
22852;DHT22;11592;45.460;9.240;2023-02-22T06:48:17;11.20;99.90
22852;DHT22;11592;45.460;9.240;2023-02-22T06:50:44;11.30;99.90
22852;DHT22;11592;45.460;9.240;2023-02-22T06:53:11;11.30;99.90
22852;DHT22;11592;45.460;9.240;2023-02-22T06:55:39;11.20;99.90
22852;DHT22;11592;45.460;9.240;2023-02-22T06:58:05;11.20;99.90
22852;DHT22;11592;45.460;9.240;2023-02-22T07:00:32;11.20;99.90
22852;DHT22;11592;45.460;9.240;2023-02-22T07:03:00;11.20;99.90
22852;DHT22;11592;45.460;9.240;2023-02-22T07:05:27;11.20;99.90
22852;DHT22;11592;45.460;9.240;2023-02-22T07:08:00;11.20;99.90
22852;DHT22;11592;45.460;9.240;2023-02-22T07:10:29;11.20;99.90
22852;DHT22;11592;45.460;9.240;2023-02-22T07:12:56;11.20;99.90
22852;DHT22;11592;45.460;9.240;2023-02-22T07:15:25;11.30;99.90
22852;DHT22;11592;45.460;9.240;2023-02-22T07:17:54;11.30;99.90
22852;DHT22;11592;45.460;9.240;2023-02-22T07:20:22;11.30;99.90
22852;DHT22;11592;45.460;9.240;2023-02-22T07:22:50;11.30;99.90
22852;DHT22;11592;45.460;9.240;2023-02-22T07:25:17;11.40;99.90
22852;DHT22;11592;45.460;9.240;2023-02-22T07:27:45;11.40;99.90
22852;DHT22;11592;45.460;9.240;2023-02-22T07:32:52;11.20;99.90
22852;DHT22;11592;45.460;9.240;2023-02-22T07:35:28;11.20;99.90
22852;DHT22;11592;45.460;9.240;2023-02-22T07:37:55;11.20;99.90
22852;DHT22;11592;45.460;9.240;2023-02-22T07:40:24;11.20;99.90
22852;DHT22;11592;45.460;9.240;2023-02-22T07:45:22;11.20;99.90
22852;DHT22;11592;45.460;9.240;2023-02-22T07:47:49;11.20;99.90
22852;DHT22;11592;45.460;9.240;2023-02-22T07:50:18;11.30;99.90
22852;DHT22;11592;45.460;9.240;2023-02-22T07:52:49;11.40;99.90
22852;DHT22;11592;45.460;9.240;2023-02-22T07:55:18;11.40;99.90
22852;DHT22;11592;45.460;9.240;2023-02-22T07:57:49;11.40;99.90
22852;DHT22;11592;45.460;9.240;2023-02-22T08:00:26;11.50;99.90
22852;DHT22;11592;45.460;9.240;2023-02-22T08:02:54;11.50;99.90
22852;DHT22;11592;45.460;9.240;2023-02-22T08:05:23;11.60;99.90
22852;DHT22;11592;45.460;9.240;2023-02-22T08:07:50;11.50;99.90
22852;DHT22;11592;45.460;9.240;2023-02-22T08:10:20;11.60;99.90
22852;DHT22;11592;45.460;9.240;2023-02-22T08:12:48;11.70;99.90
22852;DHT22;11592;45.460;9.240;2023-02-22T08:15:18;11.70;99.90
22852;DHT22;11592;45.460;9.240;2023-02-22T08:17:45;11.70;99.90
22852;DHT22;11592;45.460;9.240;2023-02-22T08:20:12;11.70;99.90
22852;DHT22;11592;45.460;9.240;2023-02-22T08:22:42;11.70;99.90
22852;DHT22;11592;45.460;9.240;2023-02-22T08:25:10;11.80;99.90
22852;DHT22;11592;45.460;9.240;2023-02-22T08:27:37;11.70;99.90
22852;DHT22;11592;45.460;9.240;2023-02-22T08:30:04;11.80;99.90
22852;DHT22;11592;45.460;9.240;2023-02-22T08:32:32;11.80;99.90
22852;DHT22;11592;45.460;9.240;2023-02-22T08:34:59;11.70;99.90
22852;DHT22;11592;45.460;9.240;2023-02-22T08:37:26;11.70;99.90
22852;DHT22;11592;45.460;9.240;2023-02-22T08:39:53;11.60;99.90
22852;DHT22;11592;45.460;9.240;2023-02-22T08:42:21;11.70;99.90
22852;DHT22;11592;45.460;9.240;2023-02-22T08:44:48;11.60;99.90
22852;DHT22;11592;45.460;9.240;2023-02-22T08:47:15;11.70;99.90
22852;DHT22;11592;45.460;9.240;2023-02-22T08:49:42;11.70;99.90
22852;DHT22;11592;45.460;9.240;2023-02-22T08:52:09;11.70;99.90
22852;DHT22;11592;45.460;9.240;2023-02-22T08:54:35;11.70;99.90
22852;DHT22;11592;45.460;9.240;2023-02-22T08:57:02;11.80;99.90
22852;DHT22;11592;45.460;9.240;2023-02-22T08:59:29;11.80;99.90
22852;DHT22;11592;45.460;9.240;2023-02-22T09:01:56;11.80;99.90
22852;DHT22;11592;45.460;9.240;2023-02-22T09:04:23;11.80;99.90
22852;DHT22;11592;45.460;9.240;2023-02-22T09:06:50;11.80;99.90
22852;DHT22;11592;45.460;9.240;2023-02-22T09:09:19;11.90;99.90
22852;DHT22;11592;45.460;9.240;2023-02-22T09:11:47;11.90;99.90
22852;DHT22;11592;45.460;9.240;2023-02-22T09:14:17;11.80;99.90
22852;DHT22;11592;45.460;9.240;2023-02-22T09:16:43;11.80;99.90
22852;DHT22;11592;45.460;9.240;2023-02-22T09:19:11;11.80;99.90
22852;DHT22;11592;45.460;9.240;2023-02-22T09:21:38;11.90;99.90
22852;DHT22;11592;45.460;9.240;2023-02-22T09:24:06;12.00;99.90
22852;DHT22;11592;45.460;9.240;2023-02-22T09:26:37;11.90;99.90
22852;DHT22;11592;45.460;9.240;2023-02-22T09:29:08;11.90;99.90
22852;DHT22;11592;45.460;9.240;2023-02-22T09:31:36;12.00;99.90
22852;DHT22;11592;45.460;9.240;2023-02-22T09:34:05;12.00;99.90
22852;DHT22;11592;45.460;9.240;2023-02-22T09:36:40;12.00;99.90
22852;DHT22;11592;45.460;9.240;2023-02-22T09:39:08;12.00;99.90
22852;DHT22;11592;45.460;9.240;2023-02-22T09:42:02;12.10;99.90
22852;DHT22;11592;45.460;9.240;2023-02-22T09:44:54;12.20;99.90
22852;DHT22;11592;45.460;9.240;2023-02-22T09:47:37;12.20;99.90
22852;DHT22;11592;45.460;9.240;2023-02-22T09:50:21;12.30;99.90
22852;DHT22;11592;45.460;9.240;2023-02-22T09:53:05;12.30;99.90
22852;DHT22;11592;45.460;9.240;2023-02-22T09:55:48;12.30;99.90
22852;DHT22;11592;45.460;9.240;2023-02-22T10:00:53;12.50;99.90
22852;DHT22;11592;45.460;9.240;2023-02-22T10:05:58;12.60;99.90
22852;DHT22;11592;45.460;9.240;2023-02-22T10:08:28;12.60;99.90
22852;DHT22;11592;45.460;9.240;2023-02-22T10:13:59;12.70;99.90
22852;DHT22;11592;45.460;9.240;2023-02-22T10:27:21;12.70;99.90
22852;DHT22;11592;45.460;9.240;2023-02-22T10:29:56;12.80;99.90
22852;DHT22;11592;45.460;9.240;2023-02-22T10:32:31;12.90;99.90
22852;DHT22;11592;45.460;9.240;2023-02-22T10:35:05;13.00;99.90
22852;DHT22;11592;45.460;9.240;2023-02-22T10:37:36;13.10;99.90
22852;DHT22;11592;45.460;9.240;2023-02-22T10:40:22;13.10;99.90
22852;DHT22;11592;45.460;9.240;2023-02-22T10:43:08;13.10;99.90
22852;DHT22;11592;45.460;9.240;2023-02-22T10:45:36;13.10;99.90
22852;DHT22;11592;45.460;9.240;2023-02-22T10:48:06;13.20;99.90
22852;DHT22;11592;45.460;9.240;2023-02-22T10:50:36;13.30;99.90
22852;DHT22;11592;45.460;9.240;2023-02-22T10:53:06;13.40;99.90
22852;DHT22;11592;45.460;9.240;2023-02-22T10:55:33;13.40;99.90
22852;DHT22;11592;45.460;9.240;2023-02-22T10:58:05;13.40;99.90
22852;DHT22;11592;45.460;9.240;2023-02-22T11:00:35;13.40;99.90
22852;DHT22;11592;45.460;9.240;2023-02-22T11:03:18;13.50;99.90
22852;DHT22;11592;45.460;9.240;2023-02-22T11:05:45;13.60;99.90
22852;DHT22;11592;45.460;9.240;2023-02-22T11:10:52;13.90;99.90
22852;DHT22;11592;45.460;9.240;2023-02-22T11:13:25;13.90;99.90
22852;DHT22;11592;45.460;9.240;2023-02-22T11:15:54;14.10;99.90
22852;DHT22;11592;45.460;9.240;2023-02-22T11:18:24;14.20;99.90
22852;DHT22;11592;45.460;9.240;2023-02-22T11:21:04;14.00;99.90
22852;DHT22;11592;45.460;9.240;2023-02-22T11:23:33;14.10;99.90
22852;DHT22;11592;45.460;9.240;2023-02-22T11:26:06;14.30;99.90
22852;DHT22;11592;45.460;9.240;2023-02-22T11:28:35;14.40;99.90
22852;DHT22;11592;45.460;9.240;2023-02-22T11:31:20;14.30;99.90
22852;DHT22;11592;45.460;9.240;2023-02-22T11:34:00;14.20;99.90
22852;DHT22;11592;45.460;9.240;2023-02-22T11:36:41;14.00;99.90
22852;DHT22;11592;45.460;9.240;2023-02-22T11:41:47;14.00;99.90
22852;DHT22;11592;45.460;9.240;2023-02-22T11:44:29;13.80;99.90
22852;DHT22;11592;45.460;9.240;2023-02-22T11:47:00;13.80;99.90
22852;DHT22;11592;45.460;9.240;2023-02-22T11:49:43;13.80;99.90
22852;DHT22;11592;45.460;9.240;2023-02-22T11:52:26;14.10;99.90
22852;DHT22;11592;45.460;9.240;2023-02-22T11:55:16;14.40;99.90
22852;DHT22;11592;45.460;9.240;2023-02-22T12:06:41;15.10;99.90
22852;DHT22;11592;45.460;9.240;2023-02-22T12:17:34;17.60;99.90
22852;DHT22;11592;45.460;9.240;2023-02-22T12:25:44;18.40;99.90
22852;DHT22;11592;45.460;9.240;2023-02-22T12:28:21;17.60;99.90
22852;DHT22;11592;45.460;9.240;2023-02-22T12:34:10;16.50;99.90
22852;DHT22;11592;45.460;9.240;2023-02-22T12:36:50;16.80;99.90
22852;DHT22;11592;45.460;9.240;2023-02-22T12:39:44;17.20;99.90
22852;DHT22;11592;45.460;9.240;2023-02-22T12:45:53;16.70;99.90
22852;DHT22;11592;45.460;9.240;2023-02-22T12:51:28;16.30;99.90
22852;DHT22;11592;45.460;9.240;2023-02-22T12:59:54;16.10;99.90
22852;DHT22;11592;45.460;9.240;2023-02-22T13:02:28;15.80;99.90
22852;DHT22;11592;45.460;9.240;2023-02-22T13:04:57;15.50;99.90
22852;DHT22;11592;45.460;9.240;2023-02-22T13:07:51;15.20;99.90
22852;DHT22;11592;45.460;9.240;2023-02-22T13:16:50;15.60;99.90
22852;DHT22;11592;45.460;9.240;2023-02-22T13:24:51;15.40;99.90
22852;DHT22;11592;45.460;9.240;2023-02-22T13:27:23;15.50;99.90
22852;DHT22;11592;45.460;9.240;2023-02-22T13:29:57;15.40;99.90
22852;DHT22;11592;45.460;9.240;2023-02-22T13:43:57;15.40;99.90
22852;DHT22;11592;45.460;9.240;2023-02-22T13:52:23;15.40;99.90
22852;DHT22;11592;45.460;9.240;2023-02-22T13:54:59;15.50;99.90
22852;DHT22;11592;45.460;9.240;2023-02-22T14:13:24;15.00;99.90
22852;DHT22;11592;45.460;9.240;2023-02-22T14:23:40;14.20;99.90
22852;DHT22;11592;45.460;9.240;2023-02-22T14:34:11;14.00;99.90
22852;DHT22;11592;45.460;9.240;2023-02-22T14:42:12;13.90;99.90
22852;DHT22;11592;45.460;9.240;2023-02-22T14:44:48;14.10;99.90
22852;DHT22;11592;45.460;9.240;2023-02-22T14:47:20;14.10;99.90
22852;DHT22;11592;45.460;9.240;2023-02-22T14:49:50;13.90;99.90
22852;DHT22;11592;45.460;9.240;2023-02-22T14:52:22;13.80;99.90
22852;DHT22;11592;45.460;9.240;2023-02-22T14:55:15;13.70;99.90
22852;DHT22;11592;45.460;9.240;2023-02-22T15:00:27;13.70;99.90
22852;DHT22;11592;45.460;9.240;2023-02-22T15:03:01;13.60;99.90
22852;DHT22;11592;45.460;9.240;2023-02-22T15:05:35;13.50;99.90
22852;DHT22;11592;45.460;9.240;2023-02-22T15:08:07;13.40;99.90
22852;DHT22;11592;45.460;9.240;2023-02-22T15:10:44;13.40;99.90
22852;DHT22;11592;45.460;9.240;2023-02-22T15:15:53;13.60;99.90
22852;DHT22;11592;45.460;9.240;2023-02-22T15:18:32;13.50;99.90
22852;DHT22;11592;45.460;9.240;2023-02-22T15:21:14;13.30;99.90
22852;DHT22;11592;45.460;9.240;2023-02-22T15:23:47;13.20;99.90
22852;DHT22;11592;45.460;9.240;2023-02-22T15:26:28;13.20;99.90
22852;DHT22;11592;45.460;9.240;2023-02-22T15:28:57;13.10;99.90
22852;DHT22;11592;45.460;9.240;2023-02-22T15:31:29;13.00;99.90
22852;DHT22;11592;45.460;9.240;2023-02-22T15:33:56;12.90;99.90
22852;DHT22;11592;45.460;9.240;2023-02-22T15:36:28;12.90;99.90
22852;DHT22;11592;45.460;9.240;2023-02-22T15:38:56;12.80;99.90
22852;DHT22;11592;45.460;9.240;2023-02-22T15:41:30;13.00;99.90
22852;DHT22;11592;45.460;9.240;2023-02-22T15:44:04;13.10;99.90
22852;DHT22;11592;45.460;9.240;2023-02-22T15:46:48;13.10;99.90
22852;DHT22;11592;45.460;9.240;2023-02-22T15:51:42;13.10;99.90
22852;DHT22;11592;45.460;9.240;2023-02-22T15:54:12;13.00;99.90
22852;DHT22;11592;45.460;9.240;2023-02-22T15:56:53;12.90;99.90
22852;DHT22;11592;45.460;9.240;2023-02-22T15:59:24;13.00;99.90
22852;DHT22;11592;45.460;9.240;2023-02-22T16:01:57;13.00;99.90
22852;DHT22;11592;45.460;9.240;2023-02-22T16:04:28;13.00;99.90
22852;DHT22;11592;45.460;9.240;2023-02-22T16:07:05;13.00;99.90
22852;DHT22;11592;45.460;9.240;2023-02-22T16:09:49;13.00;99.90
22852;DHT22;11592;45.460;9.240;2023-02-22T16:14:46;13.00;99.90
22852;DHT22;11592;45.460;9.240;2023-02-22T16:19:51;13.10;99.90
22852;DHT22;11592;45.460;9.240;2023-02-22T16:24:53;13.10;99.90
22852;DHT22;11592;45.460;9.240;2023-02-22T16:27:22;13.10;99.90
22852;DHT22;11592;45.460;9.240;2023-02-22T16:30:16;13.00;99.90
22852;DHT22;11592;45.460;9.240;2023-02-22T16:32:53;13.00;99.90
22852;DHT22;11592;45.460;9.240;2023-02-22T16:35:20;12.90;99.90
22852;DHT22;11592;45.460;9.240;2023-02-22T16:37:50;12.90;99.90
22852;DHT22;11592;45.460;9.240;2023-02-22T16:40:22;12.90;99.90
22852;DHT22;11592;45.460;9.240;2023-02-22T16:42:49;12.80;99.90
22852;DHT22;11592;45.460;9.240;2023-02-22T16:45:20;12.80;99.90
22852;DHT22;11592;45.460;9.240;2023-02-22T16:47:47;12.90;99.90
22852;DHT22;11592;45.460;9.240;2023-02-22T16:50:20;12.90;99.90
22852;DHT22;11592;45.460;9.240;2023-02-22T16:52:47;12.80;99.90
22852;DHT22;11592;45.460;9.240;2023-02-22T16:55:16;12.80;99.90
22852;DHT22;11592;45.460;9.240;2023-02-22T16:57:43;12.70;99.90
22852;DHT22;11592;45.460;9.240;2023-02-22T17:00:20;12.70;99.90
22852;DHT22;11592;45.460;9.240;2023-02-22T17:02:47;12.80;99.90
22852;DHT22;11592;45.460;9.240;2023-02-22T17:05:14;12.80;99.90
22852;DHT22;11592;45.460;9.240;2023-02-22T17:07:42;12.90;99.90
22852;DHT22;11592;45.460;9.240;2023-02-22T17:10:18;13.00;99.90
22852;DHT22;11592;45.460;9.240;2023-02-22T17:12:50;12.80;99.90
22852;DHT22;11592;45.460;9.240;2023-02-22T17:15:30;12.80;99.90
22852;DHT22;11592;45.460;9.240;2023-02-22T17:18:12;12.90;99.90
22852;DHT22;11592;45.460;9.240;2023-02-22T17:20:42;12.90;99.90
22852;DHT22;11592;45.460;9.240;2023-02-22T17:23:11;12.90;99.90
22852;DHT22;11592;45.460;9.240;2023-02-22T17:25:52;12.90;99.90
22852;DHT22;11592;45.460;9.240;2023-02-22T17:28:24;12.80;99.90
22852;DHT22;11592;45.460;9.240;2023-02-22T17:30:52;12.80;99.90
22852;DHT22;11592;45.460;9.240;2023-02-22T17:33:22;12.90;99.90
22852;DHT22;11592;45.460;9.240;2023-02-22T17:35:53;12.90;99.90
22852;DHT22;11592;45.460;9.240;2023-02-22T17:38:21;12.80;99.90
22852;DHT22;11592;45.460;9.240;2023-02-22T17:40:49;12.70;99.90
22852;DHT22;11592;45.460;9.240;2023-02-22T17:43:20;12.70;99.90
22852;DHT22;11592;45.460;9.240;2023-02-22T17:45:48;12.70;99.90
22852;DHT22;11592;45.460;9.240;2023-02-22T17:48:16;12.70;99.90
22852;DHT22;11592;45.460;9.240;2023-02-22T17:50:45;12.70;99.90
22852;DHT22;11592;45.460;9.240;2023-02-22T17:53:12;12.80;99.90
22852;DHT22;11592;45.460;9.240;2023-02-22T17:55:40;13.00;99.90
22852;DHT22;11592;45.460;9.240;2023-02-22T17:58:09;13.10;99.90
22852;DHT22;11592;45.460;9.240;2023-02-22T18:00:43;13.30;99.90
22852;DHT22;11592;45.460;9.240;2023-02-22T18:03:13;13.30;99.90
22852;DHT22;11592;45.460;9.240;2023-02-22T18:05:44;13.40;99.90
22852;DHT22;11592;45.460;9.240;2023-02-22T18:08:12;13.40;99.90
22852;DHT22;11592;45.460;9.240;2023-02-22T18:10:41;13.50;99.90
22852;DHT22;11592;45.460;9.240;2023-02-22T18:13:08;13.40;99.90
22852;DHT22;11592;45.460;9.240;2023-02-22T18:15:38;13.30;99.90
22852;DHT22;11592;45.460;9.240;2023-02-22T18:18:05;13.40;99.90
22852;DHT22;11592;45.460;9.240;2023-02-22T18:20:32;13.30;99.90
22852;DHT22;11592;45.460;9.240;2023-02-22T18:23:06;13.40;99.90
22852;DHT22;11592;45.460;9.240;2023-02-22T18:25:35;13.30;99.90
22852;DHT22;11592;45.460;9.240;2023-02-22T18:28:04;13.30;99.90
22852;DHT22;11592;45.460;9.240;2023-02-22T18:30:36;13.20;99.90
22852;DHT22;11592;45.460;9.240;2023-02-22T18:33:03;13.20;99.90
22852;DHT22;11592;45.460;9.240;2023-02-22T18:35:30;13.00;99.90
22852;DHT22;11592;45.460;9.240;2023-02-22T18:37:57;12.90;99.90
22852;DHT22;11592;45.460;9.240;2023-02-22T18:40:23;12.80;99.90
22852;DHT22;11592;45.460;9.240;2023-02-22T18:42:50;12.60;99.90
22852;DHT22;11592;45.460;9.240;2023-02-22T18:45:17;12.50;99.90
22852;DHT22;11592;45.460;9.240;2023-02-22T18:47:44;12.60;99.90
22852;DHT22;11592;45.460;9.240;2023-02-22T18:50:12;12.50;99.90
22852;DHT22;11592;45.460;9.240;2023-02-22T18:52:39;12.60;99.90
22852;DHT22;11592;45.460;9.240;2023-02-22T18:55:14;12.60;99.90
22852;DHT22;11592;45.460;9.240;2023-02-22T18:57:41;12.60;99.90